sensor_id;sensor_type;location;lat;lon;timestamp;P1;durP1;ratioP1;P2;durP2;ratioP2
71080;SDS011;58740;50.672;18.690;2023-04-16T00:00:54;19.10;;;10.70;;
71080;SDS011;58740;50.672;18.690;2023-04-16T00:03:31;19.20;;;11.60;;
71080;SDS011;58740;50.672;18.690;2023-04-16T00:06:00;17.30;;;10.20;;
71080;SDS011;58740;50.672;18.690;2023-04-16T00:08:27;18.00;;;12.30;;
71080;SDS011;58740;50.672;18.690;2023-04-16T00:10:55;20.60;;;12.40;;
71080;SDS011;58740;50.672;18.690;2023-04-16T00:13:23;23.10;;;11.90;;
71080;SDS011;58740;50.672;18.690;2023-04-16T00:15:53;21.60;;;12.50;;
71080;SDS011;58740;50.672;18.690;2023-04-16T00:18:21;19.60;;;11.40;;
71080;SDS011;58740;50.672;18.690;2023-04-16T00:20:48;19.50;;;12.10;;
71080;SDS011;58740;50.672;18.690;2023-04-16T00:23:17;21.30;;;12.30;;
71080;SDS011;58740;50.672;18.690;2023-04-16T00:25:45;24.10;;;11.40;;
71080;SDS011;58740;50.672;18.690;2023-04-16T00:28:12;22.40;;;13.10;;
71080;SDS011;58740;50.672;18.690;2023-04-16T00:30:40;23.30;;;13.10;;
71080;SDS011;58740;50.672;18.690;2023-04-16T00:33:08;26.50;;;15.10;;
71080;SDS011;58740;50.672;18.690;2023-04-16T00:35:36;27.60;;;14.60;;
71080;SDS011;58740;50.672;18.690;2023-04-16T00:38:04;27.20;;;14.90;;
71080;SDS011;58740;50.672;18.690;2023-04-16T00:40:31;27.50;;;15.50;;
71080;SDS011;58740;50.672;18.690;2023-04-16T00:42:59;25.20;;;15.30;;
71080;SDS011;58740;50.672;18.690;2023-04-16T00:45:27;24.30;;;13.60;;
71080;SDS011;58740;50.672;18.690;2023-04-16T00:47:55;22.50;;;14.20;;
71080;SDS011;58740;50.672;18.690;2023-04-16T00:50:27;21.50;;;12.80;;
71080;SDS011;58740;50.672;18.690;2023-04-16T00:52:55;21.70;;;13.60;;
71080;SDS011;58740;50.672;18.690;2023-04-16T00:55:23;27.00;;;14.20;;
71080;SDS011;58740;50.672;18.690;2023-04-16T00:57:51;21.60;;;12.60;;
71080;SDS011;58740;50.672;18.690;2023-04-16T01:00:20;24.60;;;12.20;;
71080;SDS011;58740;50.672;18.690;2023-04-16T01:02:48;18.70;;;11.00;;
71080;SDS011;58740;50.672;18.690;2023-04-16T01:05:16;21.80;;;11.80;;
71080;SDS011;58740;50.672;18.690;2023-04-16T01:07:44;19.40;;;12.20;;
71080;SDS011;58740;50.672;18.690;2023-04-16T01:10:12;17.60;;;12.10;;
71080;SDS011;58740;50.672;18.690;2023-04-16T01:12:39;23.60;;;12.90;;
71080;SDS011;58740;50.672;18.690;2023-04-16T01:15:07;18.90;;;11.60;;
71080;SDS011;58740;50.672;18.690;2023-04-16T01:17:35;16.40;;;10.40;;
71080;SDS011;58740;50.672;18.690;2023-04-16T01:20:03;19.50;;;10.00;;
71080;SDS011;58740;50.672;18.690;2023-04-16T01:22:31;19.10;;;10.30;;
71080;SDS011;58740;50.672;18.690;2023-04-16T01:24:59;21.30;;;11.70;;
71080;SDS011;58740;50.672;18.690;2023-04-16T01:27:27;24.10;;;11.90;;
71080;SDS011;58740;50.672;18.690;2023-04-16T01:29:54;28.60;;;12.60;;
71080;SDS011;58740;50.672;18.690;2023-04-16T01:32:22;26.90;;;13.00;;
71080;SDS011;58740;50.672;18.690;2023-04-16T01:34:50;23.90;;;13.50;;
71080;SDS011;58740;50.672;18.690;2023-04-16T01:37:18;26.90;;;12.50;;
71080;SDS011;58740;50.672;18.690;2023-04-16T01:39:46;20.80;;;11.40;;
71080;SDS011;58740;50.672;18.690;2023-04-16T01:42:13;22.90;;;11.90;;
71080;SDS011;58740;50.672;18.690;2023-04-16T01:44:41;19.10;;;11.00;;
71080;SDS011;58740;50.672;18.690;2023-04-16T01:47:09;18.80;;;10.70;;
71080;SDS011;58740;50.672;18.690;2023-04-16T01:49:37;16.30;;;10.50;;
71080;SDS011;58740;50.672;18.690;2023-04-16T01:52:04;18.10;;;10.70;;
71080;SDS011;58740;50.672;18.690;2023-04-16T01:54:34;19.20;;;10.90;;
71080;SDS011;58740;50.672;18.690;2023-04-16T01:57:02;19.60;;;12.50;;
71080;SDS011;58740;50.672;18.690;2023-04-16T01:59:30;18.80;;;12.30;;
71080;SDS011;58740;50.672;18.690;2023-04-16T02:02:07;21.30;;;13.40;;
71080;SDS011;58740;50.672;18.690;2023-04-16T02:04:40;19.50;;;12.00;;
71080;SDS011;58740;50.672;18.690;2023-04-16T02:07:10;21.50;;;12.40;;
71080;SDS011;58740;50.672;18.690;2023-04-16T02:09:40;22.50;;;13.10;;
71080;SDS011;58740;50.672;18.690;2023-04-16T02:12:07;20.30;;;13.20;;
71080;SDS011;58740;50.672;18.690;2023-04-16T02:14:37;19.60;;;12.90;;
71080;SDS011;58740;50.672;18.690;2023-04-16T02:17:05;19.60;;;12.60;;
71080;SDS011;58740;50.672;18.690;2023-04-16T02:19:33;20.40;;;12.50;;
71080;SDS011;58740;50.672;18.690;2023-04-16T02:22:01;21.50;;;13.50;;
71080;SDS011;58740;50.672;18.690;2023-04-16T02:24:29;21.40;;;13.60;;
71080;SDS011;58740;50.672;18.690;2023-04-16T02:26:57;19.80;;;12.40;;
71080;SDS011;58740;50.672;18.690;2023-04-16T02:29:25;20.10;;;12.60;;
71080;SDS011;58740;50.672;18.690;2023-04-16T02:31:53;20.30;;;12.70;;
71080;SDS011;58740;50.672;18.690;2023-04-16T02:34:20;18.30;;;11.10;;
71080;SDS011;58740;50.672;18.690;2023-04-16T02:36:48;18.30;;;11.50;;
71080;SDS011;58740;50.672;18.690;2023-04-16T02:39:16;21.60;;;12.50;;
71080;SDS011;58740;50.672;18.690;2023-04-16T02:41:43;20.20;;;12.00;;
71080;SDS011;58740;50.672;18.690;2023-04-16T02:44:11;19.50;;;11.70;;
71080;SDS011;58740;50.672;18.690;2023-04-16T02:46:39;18.60;;;10.90;;
71080;SDS011;58740;50.672;18.690;2023-04-16T02:49:07;17.90;;;11.60;;
71080;SDS011;58740;50.672;18.690;2023-04-16T02:51:35;18.30;;;11.20;;
71080;SDS011;58740;50.672;18.690;2023-04-16T02:54:03;16.90;;;11.10;;
71080;SDS011;58740;50.672;18.690;2023-04-16T02:56:30;19.60;;;12.10;;
71080;SDS011;58740;50.672;18.690;2023-04-16T02:58:58;17.00;;;10.90;;
71080;SDS011;58740;50.672;18.690;2023-04-16T03:01:26;21.60;;;12.70;;
71080;SDS011;58740;50.672;18.690;2023-04-16T03:03:55;18.70;;;12.30;;
71080;SDS011;58740;50.672;18.690;2023-04-16T03:06:23;19.40;;;11.70;;
71080;SDS011;58740;50.672;18.690;2023-04-16T03:08:51;18.60;;;12.10;;
71080;SDS011;58740;50.672;18.690;2023-04-16T03:11:18;19.80;;;12.30;;
71080;SDS011;58740;50.672;18.690;2023-04-16T03:13:47;22.20;;;13.00;;
71080;SDS011;58740;50.672;18.690;2023-04-16T03:16:15;19.50;;;12.30;;
71080;SDS011;58740;50.672;18.690;2023-04-16T03:18:43;24.50;;;14.50;;
71080;SDS011;58740;50.672;18.690;2023-04-16T03:21:11;20.20;;;13.70;;
71080;SDS011;58740;50.672;18.690;2023-04-16T03:23:39;20.10;;;12.40;;
71080;SDS011;58740;50.672;18.690;2023-04-16T03:26:07;21.00;;;12.30;;
71080;SDS011;58740;50.672;18.690;2023-04-16T03:28:34;19.50;;;12.60;;
71080;SDS011;58740;50.672;18.690;2023-04-16T03:31:02;18.70;;;12.20;;
71080;SDS011;58740;50.672;18.690;2023-04-16T03:33:30;18.80;;;11.20;;
71080;SDS011;58740;50.672;18.690;2023-04-16T03:35:58;20.40;;;11.40;;
71080;SDS011;58740;50.672;18.690;2023-04-16T03:38:26;18.70;;;11.20;;
71080;SDS011;58740;50.672;18.690;2023-04-16T03:40:53;18.10;;;11.10;;
71080;SDS011;58740;50.672;18.690;2023-04-16T03:43:21;18.70;;;11.50;;
71080;SDS011;58740;50.672;18.690;2023-04-16T03:45:49;20.60;;;11.40;;
71080;SDS011;58740;50.672;18.690;2023-04-16T03:48:17;18.70;;;10.70;;
71080;SDS011;58740;50.672;18.690;2023-04-16T03:50:45;18.40;;;10.80;;
71080;SDS011;58740;50.672;18.690;2023-04-16T03:53:16;18.50;;;11.10;;
71080;SDS011;58740;50.672;18.690;2023-04-16T03:55:44;18.80;;;12.30;;
71080;SDS011;58740;50.672;18.690;2023-04-16T03:58:12;17.50;;;10.70;;
71080;SDS011;58740;50.672;18.690;2023-04-16T04:00:40;16.40;;;10.10;;
71080;SDS011;58740;50.672;18.690;2023-04-16T04:03:09;17.20;;;10.10;;
71080;SDS011;58740;50.672;18.690;2023-04-16T04:05:39;17.40;;;10.10;;
71080;SDS011;58740;50.672;18.690;2023-04-16T04:08:08;20.00;;;11.60;;
71080;SDS011;58740;50.672;18.690;2023-04-16T04:10:36;19.80;;;11.70;;
71080;SDS011;58740;50.672;18.690;2023-04-16T04:13:05;20.50;;;12.80;;
71080;SDS011;58740;50.672;18.690;2023-04-16T04:15:33;20.20;;;13.60;;
71080;SDS011;58740;50.672;18.690;2023-04-16T04:18:01;21.80;;;15.10;;
71080;SDS011;58740;50.672;18.690;2023-04-16T04:20:29;20.50;;;14.00;;
71080;SDS011;58740;50.672;18.690;2023-04-16T04:22:57;21.80;;;12.00;;
71080;SDS011;58740;50.672;18.690;2023-04-16T04:25:25;21.70;;;10.70;;
71080;SDS011;58740;50.672;18.690;2023-04-16T04:27:53;20.10;;;11.60;;
71080;SDS011;58740;50.672;18.690;2023-04-16T04:30:20;17.40;;;11.60;;
71080;SDS011;58740;50.672;18.690;2023-04-16T04:32:48;18.20;;;11.30;;
71080;SDS011;58740;50.672;18.690;2023-04-16T04:35:16;20.70;;;12.20;;
71080;SDS011;58740;50.672;18.690;2023-04-16T04:37:44;19.20;;;11.30;;
71080;SDS011;58740;50.672;18.690;2023-04-16T04:40:12;20.10;;;11.20;;
71080;SDS011;58740;50.672;18.690;2023-04-16T04:42:40;20.80;;;11.70;;
71080;SDS011;58740;50.672;18.690;2023-04-16T04:45:08;16.20;;;10.90;;
71080;SDS011;58740;50.672;18.690;2023-04-16T04:47:36;20.00;;;12.50;;
71080;SDS011;58740;50.672;18.690;2023-04-16T04:50:05;17.10;;;11.10;;
71080;SDS011;58740;50.672;18.690;2023-04-16T04:52:33;19.50;;;11.90;;
71080;SDS011;58740;50.672;18.690;2023-04-16T04:55:01;19.50;;;11.20;;
71080;SDS011;58740;50.672;18.690;2023-04-16T04:57:29;20.50;;;10.70;;
71080;SDS011;58740;50.672;18.690;2023-04-16T04:59:56;21.90;;;12.00;;
71080;SDS011;58740;50.672;18.690;2023-04-16T05:02:24;21.70;;;11.50;;
71080;SDS011;58740;50.672;18.690;2023-04-16T05:04:52;18.40;;;10.60;;
71080;SDS011;58740;50.672;18.690;2023-04-16T05:07:20;23.80;;;11.80;;
71080;SDS011;58740;50.672;18.690;2023-04-16T05:09:48;23.50;;;13.00;;
71080;SDS011;58740;50.672;18.690;2023-04-16T05:12:16;21.90;;;11.70;;
71080;SDS011;58740;50.672;18.690;2023-04-16T05:14:44;20.30;;;11.70;;
71080;SDS011;58740;50.672;18.690;2023-04-16T05:17:11;23.70;;;12.80;;
71080;SDS011;58740;50.672;18.690;2023-04-16T05:19:39;23.70;;;13.30;;
71080;SDS011;58740;50.672;18.690;2023-04-16T05:22:07;25.70;;;12.80;;
71080;SDS011;58740;50.672;18.690;2023-04-16T05:24:35;23.40;;;12.90;;
71080;SDS011;58740;50.672;18.690;2023-04-16T05:27:03;25.50;;;12.70;;
71080;SDS011;58740;50.672;18.690;2023-04-16T05:29:30;23.10;;;13.90;;
71080;SDS011;58740;50.672;18.690;2023-04-16T05:31:58;23.80;;;12.60;;
71080;SDS011;58740;50.672;18.690;2023-04-16T05:34:26;25.50;;;13.30;;
71080;SDS011;58740;50.672;18.690;2023-04-16T05:36:54;22.90;;;13.00;;
71080;SDS011;58740;50.672;18.690;2023-04-16T05:39:22;23.30;;;12.70;;
71080;SDS011;58740;50.672;18.690;2023-04-16T05:41:50;27.30;;;14.70;;
71080;SDS011;58740;50.672;18.690;2023-04-16T05:44:17;28.00;;;13.90;;
71080;SDS011;58740;50.672;18.690;2023-04-16T05:46:45;28.50;;;14.30;;
71080;SDS011;58740;50.672;18.690;2023-04-16T05:49:12;28.40;;;13.70;;
71080;SDS011;58740;50.672;18.690;2023-04-16T05:51:40;25.90;;;13.90;;
71080;SDS011;58740;50.672;18.690;2023-04-16T05:54:08;25.90;;;14.20;;
71080;SDS011;58740;50.672;18.690;2023-04-16T05:56:36;29.60;;;16.40;;
71080;SDS011;58740;50.672;18.690;2023-04-16T05:59:03;28.80;;;14.70;;
71080;SDS011;58740;50.672;18.690;2023-04-16T06:01:31;30.00;;;15.40;;
71080;SDS011;58740;50.672;18.690;2023-04-16T06:04:03;26.90;;;15.30;;
71080;SDS011;58740;50.672;18.690;2023-04-16T06:06:31;31.90;;;17.80;;
71080;SDS011;58740;50.672;18.690;2023-04-16T06:08:58;31.30;;;18.00;;
71080;SDS011;58740;50.672;18.690;2023-04-16T06:11:28;31.90;;;17.00;;
71080;SDS011;58740;50.672;18.690;2023-04-16T06:13:57;29.20;;;15.50;;
71080;SDS011;58740;50.672;18.690;2023-04-16T06:16:24;26.60;;;14.50;;
71080;SDS011;58740;50.672;18.690;2023-04-16T06:18:52;24.70;;;13.70;;
71080;SDS011;58740;50.672;18.690;2023-04-16T06:21:20;25.60;;;15.00;;
71080;SDS011;58740;50.672;18.690;2023-04-16T06:23:47;24.70;;;14.60;;
71080;SDS011;58740;50.672;18.690;2023-04-16T06:26:15;28.10;;;15.00;;
71080;SDS011;58740;50.672;18.690;2023-04-16T06:28:43;27.90;;;16.20;;
71080;SDS011;58740;50.672;18.690;2023-04-16T06:31:11;29.80;;;14.90;;
71080;SDS011;58740;50.672;18.690;2023-04-16T06:33:38;23.40;;;14.10;;
71080;SDS011;58740;50.672;18.690;2023-04-16T06:36:07;28.60;;;15.30;;
71080;SDS011;58740;50.672;18.690;2023-04-16T06:38:35;25.80;;;15.20;;
71080;SDS011;58740;50.672;18.690;2023-04-16T06:41:03;27.00;;;16.60;;
71080;SDS011;58740;50.672;18.690;2023-04-16T06:43:31;26.80;;;16.20;;
71080;SDS011;58740;50.672;18.690;2023-04-16T06:46:00;30.90;;;19.10;;
71080;SDS011;58740;50.672;18.690;2023-04-16T06:48:28;31.00;;;18.50;;
71080;SDS011;58740;50.672;18.690;2023-04-16T06:50:56;28.70;;;16.30;;
71080;SDS011;58740;50.672;18.690;2023-04-16T06:53:24;30.40;;;16.40;;
71080;SDS011;58740;50.672;18.690;2023-04-16T06:55:52;26.30;;;15.60;;
71080;SDS011;58740;50.672;18.690;2023-04-16T06:58:20;27.30;;;17.60;;
71080;SDS011;58740;50.672;18.690;2023-04-16T07:00:48;23.50;;;14.20;;
71080;SDS011;58740;50.672;18.690;2023-04-16T07:03:16;29.70;;;16.30;;
71080;SDS011;58740;50.672;18.690;2023-04-16T07:05:44;26.50;;;15.20;;
71080;SDS011;58740;50.672;18.690;2023-04-16T07:08:12;26.40;;;14.90;;
71080;SDS011;58740;50.672;18.690;2023-04-16T07:10:40;27.70;;;15.60;;
71080;SDS011;58740;50.672;18.690;2023-04-16T07:13:08;25.40;;;14.90;;
71080;SDS011;58740;50.672;18.690;2023-04-16T07:15:36;24.70;;;14.10;;
71080;SDS011;58740;50.672;18.690;2023-04-16T07:18:03;24.80;;;14.20;;
71080;SDS011;58740;50.672;18.690;2023-04-16T07:20:31;26.70;;;14.80;;
71080;SDS011;58740;50.672;18.690;2023-04-16T07:22:59;29.40;;;15.10;;
71080;SDS011;58740;50.672;18.690;2023-04-16T07:25:27;29.50;;;16.20;;
71080;SDS011;58740;50.672;18.690;2023-04-16T07:27:55;27.80;;;16.50;;
71080;SDS011;58740;50.672;18.690;2023-04-16T07:30:22;28.60;;;14.90;;
71080;SDS011;58740;50.672;18.690;2023-04-16T07:32:50;28.60;;;15.90;;
71080;SDS011;58740;50.672;18.690;2023-04-16T07:35:18;26.80;;;14.70;;
71080;SDS011;58740;50.672;18.690;2023-04-16T07:37:46;24.90;;;14.30;;
71080;SDS011;58740;50.672;18.690;2023-04-16T07:40:14;23.30;;;13.40;;
71080;SDS011;58740;50.672;18.690;2023-04-16T07:42:42;25.10;;;13.10;;
71080;SDS011;58740;50.672;18.690;2023-04-16T07:45:09;25.40;;;13.50;;
71080;SDS011;58740;50.672;18.690;2023-04-16T07:47:38;25.90;;;15.10;;
71080;SDS011;58740;50.672;18.690;2023-04-16T07:50:06;22.60;;;12.80;;
71080;SDS011;58740;50.672;18.690;2023-04-16T07:52:34;22.60;;;12.90;;
71080;SDS011;58740;50.672;18.690;2023-04-16T07:55:02;25.40;;;13.30;;
71080;SDS011;58740;50.672;18.690;2023-04-16T07:57:30;23.80;;;13.00;;
71080;SDS011;58740;50.672;18.690;2023-04-16T07:59:58;24.80;;;13.70;;
71080;SDS011;58740;50.672;18.690;2023-04-16T08:02:28;24.50;;;14.80;;
71080;SDS011;58740;50.672;18.690;2023-04-16T08:04:57;20.00;;;11.40;;
71080;SDS011;58740;50.672;18.690;2023-04-16T08:07:25;25.30;;;14.70;;
71080;SDS011;58740;50.672;18.690;2023-04-16T08:09:53;25.20;;;14.40;;
71080;SDS011;58740;50.672;18.690;2023-04-16T08:12:22;22.10;;;13.70;;
71080;SDS011;58740;50.672;18.690;2023-04-16T08:14:50;22.50;;;13.90;;
71080;SDS011;58740;50.672;18.690;2023-04-16T08:17:18;20.70;;;12.60;;
71080;SDS011;58740;50.672;18.690;2023-04-16T08:19:45;20.20;;;11.90;;
71080;SDS011;58740;50.672;18.690;2023-04-16T08:22:13;19.50;;;11.60;;
71080;SDS011;58740;50.672;18.690;2023-04-16T08:24:42;22.80;;;13.20;;
71080;SDS011;58740;50.672;18.690;2023-04-16T08:27:09;20.40;;;12.30;;
71080;SDS011;58740;50.672;18.690;2023-04-16T08:29:47;21.80;;;13.20;;
71080;SDS011;58740;50.672;18.690;2023-04-16T08:32:16;20.90;;;13.00;;
71080;SDS011;58740;50.672;18.690;2023-04-16T08:34:44;16.70;;;9.50;;
71080;SDS011;58740;50.672;18.690;2023-04-16T08:37:11;22.40;;;12.50;;
71080;SDS011;58740;50.672;18.690;2023-04-16T08:39:39;23.60;;;12.20;;
71080;SDS011;58740;50.672;18.690;2023-04-16T08:42:13;22.90;;;12.60;;
71080;SDS011;58740;50.672;18.690;2023-04-16T08:44:52;21.80;;;10.60;;
71080;SDS011;58740;50.672;18.690;2023-04-16T08:47:34;21.60;;;12.80;;
71080;SDS011;58740;50.672;18.690;2023-04-16T08:50:07;26.50;;;13.90;;
71080;SDS011;58740;50.672;18.690;2023-04-16T08:52:42;23.50;;;13.20;;
71080;SDS011;58740;50.672;18.690;2023-04-16T08:55:19;22.30;;;11.60;;
71080;SDS011;58740;50.672;18.690;2023-04-16T08:57:59;22.80;;;13.70;;
71080;SDS011;58740;50.672;18.690;2023-04-16T09:00:30;23.20;;;12.10;;
71080;SDS011;58740;50.672;18.690;2023-04-16T09:02:58;22.40;;;13.60;;
71080;SDS011;58740;50.672;18.690;2023-04-16T09:05:28;33.60;;;17.00;;
71080;SDS011;58740;50.672;18.690;2023-04-16T09:07:56;22.70;;;13.30;;
71080;SDS011;58740;50.672;18.690;2023-04-16T09:10:26;25.10;;;14.00;;
71080;SDS011;58740;50.672;18.690;2023-04-16T09:12:55;20.70;;;12.10;;
71080;SDS011;58740;50.672;18.690;2023-04-16T09:15:24;22.10;;;12.40;;
71080;SDS011;58740;50.672;18.690;2023-04-16T09:17:53;22.70;;;13.60;;
71080;SDS011;58740;50.672;18.690;2023-04-16T09:20:23;22.10;;;13.10;;
71080;SDS011;58740;50.672;18.690;2023-04-16T09:22:51;21.50;;;11.60;;
71080;SDS011;58740;50.672;18.690;2023-04-16T09:25:19;21.80;;;12.40;;
71080;SDS011;58740;50.672;18.690;2023-04-16T09:27:49;21.40;;;12.10;;
71080;SDS011;58740;50.672;18.690;2023-04-16T09:30:25;19.10;;;12.10;;
71080;SDS011;58740;50.672;18.690;2023-04-16T09:35:50;22.60;;;11.70;;
71080;SDS011;58740;50.672;18.690;2023-04-16T09:38:19;18.90;;;10.90;;
71080;SDS011;58740;50.672;18.690;2023-04-16T09:41:04;19.30;;;11.20;;
71080;SDS011;58740;50.672;18.690;2023-04-16T09:43:34;16.80;;;9.50;;
71080;SDS011;58740;50.672;18.690;2023-04-16T09:46:03;19.70;;;10.20;;
71080;SDS011;58740;50.672;18.690;2023-04-16T09:48:35;19.10;;;10.60;;
71080;SDS011;58740;50.672;18.690;2023-04-16T09:51:05;20.40;;;11.80;;
71080;SDS011;58740;50.672;18.690;2023-04-16T09:53:33;21.10;;;13.60;;
71080;SDS011;58740;50.672;18.690;2023-04-16T09:56:04;18.90;;;11.00;;
71080;SDS011;58740;50.672;18.690;2023-04-16T09:58:35;17.40;;;11.10;;
71080;SDS011;58740;50.672;18.690;2023-04-16T10:01:10;19.10;;;10.90;;
71080;SDS011;58740;50.672;18.690;2023-04-16T10:03:39;17.30;;;9.90;;
71080;SDS011;58740;50.672;18.690;2023-04-16T10:06:13;19.70;;;11.70;;
71080;SDS011;58740;50.672;18.690;2023-04-16T10:08:45;21.90;;;11.30;;
71080;SDS011;58740;50.672;18.690;2023-04-16T10:11:18;17.70;;;10.50;;
71080;SDS011;58740;50.672;18.690;2023-04-16T10:13:48;16.90;;;9.70;;
71080;SDS011;58740;50.672;18.690;2023-04-16T10:16:18;15.50;;;8.90;;
71080;SDS011;58740;50.672;18.690;2023-04-16T10:18:48;16.40;;;10.10;;
71080;SDS011;58740;50.672;18.690;2023-04-16T10:21:17;14.00;;;8.10;;
71080;SDS011;58740;50.672;18.690;2023-04-16T10:23:45;17.10;;;10.30;;
71080;SDS011;58740;50.672;18.690;2023-04-16T10:26:17;14.70;;;7.90;;
71080;SDS011;58740;50.672;18.690;2023-04-16T10:28:45;14.90;;;8.70;;
71080;SDS011;58740;50.672;18.690;2023-04-16T10:31:13;12.60;;;7.30;;
71080;SDS011;58740;50.672;18.690;2023-04-16T10:33:41;14.00;;;8.20;;
71080;SDS011;58740;50.672;18.690;2023-04-16T10:36:16;13.90;;;7.60;;
71080;SDS011;58740;50.672;18.690;2023-04-16T10:38:50;12.60;;;7.90;;
71080;SDS011;58740;50.672;18.690;2023-04-16T10:41:19;14.30;;;7.30;;
71080;SDS011;58740;50.672;18.690;2023-04-16T10:43:49;13.80;;;7.80;;
71080;SDS011;58740;50.672;18.690;2023-04-16T10:46:21;13.30;;;7.70;;
71080;SDS011;58740;50.672;18.690;2023-04-16T10:49:01;12.70;;;7.50;;
71080;SDS011;58740;50.672;18.690;2023-04-16T10:51:40;15.30;;;8.40;;
71080;SDS011;58740;50.672;18.690;2023-04-16T10:56:43;12.50;;;6.70;;
71080;SDS011;58740;50.672;18.690;2023-04-16T10:59:12;13.60;;;6.90;;
71080;SDS011;58740;50.672;18.690;2023-04-16T11:01:46;11.90;;;6.90;;
71080;SDS011;58740;50.672;18.690;2023-04-16T11:07:01;12.50;;;6.60;;
71080;SDS011;58740;50.672;18.690;2023-04-16T11:12:46;10.10;;;5.60;;
71080;SDS011;58740;50.672;18.690;2023-04-16T11:15:24;11.40;;;5.80;;
71080;SDS011;58740;50.672;18.690;2023-04-16T11:17:57;10.80;;;6.60;;
71080;SDS011;58740;50.672;18.690;2023-04-16T11:20:26;11.90;;;6.80;;
71080;SDS011;58740;50.672;18.690;2023-04-16T11:22:56;12.50;;;6.70;;
71080;SDS011;58740;50.672;18.690;2023-04-16T11:25:27;13.10;;;7.00;;
71080;SDS011;58740;50.672;18.690;2023-04-16T11:27:57;11.80;;;6.10;;
71080;SDS011;58740;50.672;18.690;2023-04-16T11:30:31;10.90;;;6.40;;
71080;SDS011;58740;50.672;18.690;2023-04-16T11:33:08;10.70;;;6.20;;
71080;SDS011;58740;50.672;18.690;2023-04-16T11:35:38;8.60;;;4.90;;
71080;SDS011;58740;50.672;18.690;2023-04-16T11:38:06;11.30;;;5.30;;
71080;SDS011;58740;50.672;18.690;2023-04-16T11:40:34;14.80;;;6.70;;
71080;SDS011;58740;50.672;18.690;2023-04-16T11:43:11;10.70;;;6.30;;
71080;SDS011;58740;50.672;18.690;2023-04-16T11:46:10;10.60;;;5.90;;
71080;SDS011;58740;50.672;18.690;2023-04-16T11:48:54;12.90;;;8.00;;
71080;SDS011;58740;50.672;18.690;2023-04-16T11:51:22;11.30;;;6.90;;
71080;SDS011;58740;50.672;18.690;2023-04-16T11:53:52;11.80;;;6.50;;
71080;SDS011;58740;50.672;18.690;2023-04-16T11:56:33;14.40;;;7.00;;
71080;SDS011;58740;50.672;18.690;2023-04-16T11:59:06;13.30;;;7.70;;
71080;SDS011;58740;50.672;18.690;2023-04-16T12:01:38;14.40;;;7.50;;
71080;SDS011;58740;50.672;18.690;2023-04-16T12:04:07;13.60;;;6.90;;
71080;SDS011;58740;50.672;18.690;2023-04-16T12:06:35;11.90;;;6.80;;
71080;SDS011;58740;50.672;18.690;2023-04-16T12:09:23;12.30;;;7.30;;
71080;SDS011;58740;50.672;18.690;2023-04-16T12:11:52;12.20;;;7.00;;
71080;SDS011;58740;50.672;18.690;2023-04-16T12:14:21;12.60;;;7.20;;
71080;SDS011;58740;50.672;18.690;2023-04-16T12:16:50;13.20;;;6.90;;
71080;SDS011;58740;50.672;18.690;2023-04-16T12:19:18;13.70;;;6.90;;
71080;SDS011;58740;50.672;18.690;2023-04-16T12:21:48;13.00;;;7.30;;
71080;SDS011;58740;50.672;18.690;2023-04-16T12:24:17;11.70;;;7.70;;
71080;SDS011;58740;50.672;18.690;2023-04-16T12:26:52;13.50;;;7.30;;
71080;SDS011;58740;50.672;18.690;2023-04-16T12:29:29;12.20;;;6.60;;
71080;SDS011;58740;50.672;18.690;2023-04-16T12:31:58;13.10;;;7.20;;
71080;SDS011;58740;50.672;18.690;2023-04-16T12:34:26;12.20;;;6.80;;
71080;SDS011;58740;50.672;18.690;2023-04-16T12:37:13;12.70;;;6.90;;
71080;SDS011;58740;50.672;18.690;2023-04-16T12:39:42;10.70;;;6.40;;
71080;SDS011;58740;50.672;18.690;2023-04-16T12:42:09;11.80;;;6.40;;
71080;SDS011;58740;50.672;18.690;2023-04-16T12:44:39;11.60;;;6.50;;
71080;SDS011;58740;50.672;18.690;2023-04-16T12:47:07;11.10;;;5.70;;
71080;SDS011;58740;50.672;18.690;2023-04-16T12:49:35;10.30;;;6.00;;
71080;SDS011;58740;50.672;18.690;2023-04-16T12:52:03;11.00;;;6.00;;
71080;SDS011;58740;50.672;18.690;2023-04-16T12:54:32;9.60;;;5.40;;
71080;SDS011;58740;50.672;18.690;2023-04-16T12:57:00;10.50;;;5.50;;
71080;SDS011;58740;50.672;18.690;2023-04-16T12:59:27;8.70;;;5.00;;
71080;SDS011;58740;50.672;18.690;2023-04-16T13:01:55;11.60;;;6.20;;
71080;SDS011;58740;50.672;18.690;2023-04-16T13:04:23;9.80;;;5.60;;
71080;SDS011;58740;50.672;18.690;2023-04-16T13:06:52;9.60;;;5.80;;
71080;SDS011;58740;50.672;18.690;2023-04-16T13:09:20;11.90;;;5.40;;
71080;SDS011;58740;50.672;18.690;2023-04-16T13:11:48;11.70;;;7.40;;
71080;SDS011;58740;50.672;18.690;2023-04-16T13:14:16;10.10;;;6.80;;
71080;SDS011;58740;50.672;18.690;2023-04-16T13:16:43;12.00;;;6.40;;
71080;SDS011;58740;50.672;18.690;2023-04-16T13:19:11;8.10;;;4.10;;
71080;SDS011;58740;50.672;18.690;2023-04-16T13:21:39;8.70;;;4.70;;
71080;SDS011;58740;50.672;18.690;2023-04-16T13:24:07;11.40;;;5.60;;
71080;SDS011;58740;50.672;18.690;2023-04-16T13:26:35;8.50;;;4.40;;
71080;SDS011;58740;50.672;18.690;2023-04-16T13:29:02;9.40;;;4.30;;
71080;SDS011;58740;50.672;18.690;2023-04-16T13:31:30;8.10;;;4.00;;
71080;SDS011;58740;50.672;18.690;2023-04-16T13:33:58;7.00;;;3.50;;
71080;SDS011;58740;50.672;18.690;2023-04-16T13:36:26;7.00;;;4.10;;
71080;SDS011;58740;50.672;18.690;2023-04-16T13:38:54;8.30;;;3.70;;
71080;SDS011;58740;50.672;18.690;2023-04-16T13:41:22;8.90;;;4.50;;
71080;SDS011;58740;50.672;18.690;2023-04-16T13:43:49;11.10;;;5.70;;
71080;SDS011;58740;50.672;18.690;2023-04-16T13:46:17;11.40;;;6.80;;
71080;SDS011;58740;50.672;18.690;2023-04-16T13:48:45;11.80;;;6.80;;
71080;SDS011;58740;50.672;18.690;2023-04-16T13:51:13;9.60;;;5.00;;
71080;SDS011;58740;50.672;18.690;2023-04-16T13:53:42;9.30;;;4.80;;
71080;SDS011;58740;50.672;18.690;2023-04-16T13:56:11;10.90;;;4.60;;
71080;SDS011;58740;50.672;18.690;2023-04-16T13:58:39;8.70;;;4.60;;
71080;SDS011;58740;50.672;18.690;2023-04-16T14:01:08;9.90;;;4.70;;
71080;SDS011;58740;50.672;18.690;2023-04-16T14:03:36;10.00;;;5.20;;
71080;SDS011;58740;50.672;18.690;2023-04-16T14:06:05;10.20;;;4.90;;
71080;SDS011;58740;50.672;18.690;2023-04-16T14:08:33;9.50;;;5.10;;
71080;SDS011;58740;50.672;18.690;2023-04-16T14:11:00;9.90;;;5.40;;
71080;SDS011;58740;50.672;18.690;2023-04-16T14:13:28;9.50;;;4.80;;
71080;SDS011;58740;50.672;18.690;2023-04-16T14:15:56;10.00;;;5.80;;
71080;SDS011;58740;50.672;18.690;2023-04-16T14:18:24;12.20;;;6.20;;
71080;SDS011;58740;50.672;18.690;2023-04-16T14:20:51;11.80;;;6.30;;
71080;SDS011;58740;50.672;18.690;2023-04-16T14:23:19;12.70;;;5.10;;
71080;SDS011;58740;50.672;18.690;2023-04-16T14:25:47;9.50;;;5.40;;
71080;SDS011;58740;50.672;18.690;2023-04-16T14:28:15;10.70;;;6.00;;
71080;SDS011;58740;50.672;18.690;2023-04-16T14:30:42;12.00;;;5.70;;
71080;SDS011;58740;50.672;18.690;2023-04-16T14:33:10;9.50;;;5.10;;
71080;SDS011;58740;50.672;18.690;2023-04-16T14:35:38;11.20;;;6.00;;